Time;durP1;ratioP1;P1;durP2;ratioP2;P2;SDS_P1;SDS_P2;PMS_P1;PMS_P2;Temp;Humidity;BMP_temperature;BMP_pressure;BME280_temperature;BME280_humidity;BME280_pressure;Samples;Min_cycle;Max_cycle;Signal;HPM_P1;HPM_P2
2022/01/24 00:01:37;;;;;;;45.45;27.55;;;;;;;;;;5089092;28;20028;-79
2022/01/24 00:04:03;;;;;;;46.63;29.02;;;;;;;;;;5089673;28;20470;-79
2022/01/24 00:06:30;;;;;;;50.65;30.10;;;;;;;;;;5088863;28;20390;-79
2022/01/24 00:08:57;;;;;;;47.38;29.20;;;;;;;;;;5089463;28;20036;-79
2022/01/24 00:11:28;;;;;;;47.13;28.90;;;;;;;;;;5085571;28;20032;-79
2022/01/24 00:27:42;;;;;;;51.90;31.83;;;;;;;;;;5092985;28;20051;-78
2022/01/24 00:30:08;;;;;;;46.72;30.92;;;;;;;;;;5092556;28;20028;-79
2022/01/24 00:32:34;;;;;;;48.47;30.85;;;;;;;;;;5091974;28;20475;-78
2022/01/24 00:35:00;;;;;;;54.45;35.50;;;;;;;;;;5092488;28;20039;-79
2022/01/24 00:37:30;;;;;;;52.85;34.25;;;;;;;;;;5093114;28;20043;-78
2022/01/24 00:39:57;;;;;;;48.63;31.75;;;;;;;;;;5092636;28;20027;-78
2022/01/24 00:42:36;;;;;;;53.13;32.83;;;;;;;;;;5078315;28;20037;-78
2022/01/24 00:55:47;;;;;;;55.38;33.88;;;;;;;;;;5080187;28;20081;-78
2022/01/24 00:58:13;;;;;;;52.50;35.30;;;;;;;;;;5088190;28;20044;-79
2022/01/24 01:00:40;;;;;;;50.10;32.08;;;;;;;;;;5092203;28;20093;-78
2022/01/24 01:03:06;;;;;;;48.65;30.23;;;;;;;;;;5073222;28;20127;-79
2022/01/24 01:18:58;;;;;;;49.17;31.38;;;;;;;;;;5091444;28;20059;-79
2022/01/24 01:21:24;;;;;;;49.88;29.55;;;;;;;;;;5092394;28;20047;-78
2022/01/24 01:23:54;;;;;;;45.28;28.65;;;;;;;;;;5059228;28;20025;-79
2022/01/24 01:26:36;;;;;;;49.70;31.70;;;;;;;;;;5071728;28;20031;-79
2022/01/24 01:29:08;;;;;;;51.95;31.98;;;;;;;;;;5071328;28;20072;-79
2022/01/24 01:34:39;;;;;;;52.85;31.90;;;;;;;;;;5083326;28;20654;-78
2022/01/24 01:37:12;;;;;;;61.13;34.97;;;;;;;;;;5090728;28;20048;-78
2022/01/24 01:55:39;;;;;;;46.83;28.95;;;;;;;;;;5091425;28;20051;-79
2022/01/24 01:58:10;;;;;;;51.70;32.20;;;;;;;;;;5082009;28;20033;-79
2022/01/24 02:00:37;;;;;;;51.28;32.58;;;;;;;;;;5071359;28;20774;-79
2022/01/24 02:03:03;;;;;;;54.35;33.97;;;;;;;;;;5090870;28;20032;-79
2022/01/24 02:05:29;;;;;;;49.47;29.88;;;;;;;;;;5090903;28;20709;-79
2022/01/24 02:07:55;;;;;;;52.45;32.03;;;;;;;;;;5091063;28;20133;-78
2022/01/24 02:10:22;;;;;;;52.63;33.20;;;;;;;;;;5090560;28;20471;-79
2022/01/24 02:12:49;;;;;;;56.83;33.72;;;;;;;;;;5090343;28;20384;-78
2022/01/24 02:15:23;;;;;;;50.53;30.75;;;;;;;;;;5091004;28;20131;-79
2022/01/24 02:23:13;;;;;;;58.60;33.63;;;;;;;;;;5090665;28;20074;-79
2022/01/24 02:25:36;;;;;;;57.60;34.17;;;;;;;;;;5090758;28;20626;-79
2022/01/24 02:28:03;;;;;;;57.50;34.90;;;;;;;;;;5090575;28;20036;-79
2022/01/24 02:30:52;;;;;;;56.22;35.03;;;;;;;;;;5090458;28;20714;-79
2022/01/24 02:33:18;;;;;;;57.97;36.30;;;;;;;;;;5086104;28;20036;-79
2022/01/24 02:35:44;;;;;;;60.28;36.90;;;;;;;;;;5084838;28;20029;-78
2022/01/24 02:38:26;;;;;;;56.40;34.83;;;;;;;;;;5070681;28;20032;-79
2022/01/24 02:49:34;;;;;;;53.55;32.50;;;;;;;;;;5007732;28;20520;-79
2022/01/24 02:52:07;;;;;;;55.50;32.70;;;;;;;;;;5065448;28;20070;-79
2022/01/24 02:54:34;;;;;;;51.65;32.53;;;;;;;;;;5090177;28;20024;-79
2022/01/24 02:57:04;;;;;;;51.75;32.88;;;;;;;;;;5089473;28;20375;-79
2022/01/24 02:59:30;;;;;;;55.28;30.13;;;;;;;;;;5090173;28;20028;-79
2022/01/24 03:01:56;;;;;;;51.35;31.67;;;;;;;;;;5080276;28;20039;-79
2022/01/24 03:04:22;;;;;;;54.90;33.90;;;;;;;;;;5090067;28;20035;-79
2022/01/24 03:06:49;;;;;;;49.15;31.95;;;;;;;;;;5089893;28;20693;-79
2022/01/24 03:09:15;;;;;;;53.53;33.13;;;;;;;;;;5090359;28;20119;-79
2022/01/24 03:14:14;;;;;;;57.05;34.85;;;;;;;;;;5089514;28;20097;-79
2022/01/24 03:16:40;;;;;;;58.30;34.08;;;;;;;;;;5090008;28;20526;-79
2022/01/24 03:19:07;;;;;;;53.70;33.40;;;;;;;;;;5073360;28;20123;-79
2022/01/24 03:21:33;;;;;;;52.75;32.10;;;;;;;;;;5069570;28;20486;-79
2022/01/24 03:23:59;;;;;;;51.00;32.33;;;;;;;;;;5080221;28;20520;-79
2022/01/24 03:26:25;;;;;;;48.65;28.63;;;;;;;;;;5089803;28;20102;-79
2022/01/24 03:28:51;;;;;;;54.70;34.30;;;;;;;;;;5089216;28;20111;-79
2022/01/24 03:31:17;;;;;;;57.45;36.92;;;;;;;;;;5089531;28;20103;-79
2022/01/24 03:33:43;;;;;;;55.55;35.03;;;;;;;;;;5089197;28;20374;-79
2022/01/24 03:36:09;;;;;;;55.60;33.78;;;;;;;;;;5080849;28;20035;-79
2022/01/24 03:38:35;;;;;;;53.50;34.88;;;;;;;;;;5104287;23;20087;-78
2022/01/24 03:41:01;;;;;;;57.17;33.90;;;;;;;;;;5089038;28;20093;-79
2022/01/24 03:43:27;;;;;;;54.38;34.30;;;;;;;;;;5089290;28;20044;-78
2022/01/24 03:48:42;;;;;;;60.38;35.95;;;;;;;;;;5089363;28;20066;-79
2022/01/24 03:51:08;;;;;;;55.97;34.10;;;;;;;;;;5088572;28;20020;-78
2022/01/24 03:53:34;;;;;;;55.17;33.15;;;;;;;;;;5089493;28;20040;-79
2022/01/24 03:56:00;;;;;;;59.80;33.92;;;;;;;;;;5088653;28;20024;-79
2022/01/24 03:58:26;;;;;;;41.53;25.35;;;;;;;;;;5089453;28;20044;-78
2022/01/24 04:00:52;;;;;;;41.42;25.73;;;;;;;;;;5089032;28;20042;-78
2022/01/24 04:03:18;;;;;;;53.30;32.03;;;;;;;;;;5073427;28;20068;-78
2022/01/24 04:05:44;;;;;;;56.08;35.33;;;;;;;;;;5080031;28;20405;-78
2022/01/24 04:08:10;;;;;;;60.28;35.22;;;;;;;;;;5093305;28;20462;-78
2022/01/24 04:10:50;;;;;;;59.30;34.03;;;;;;;;;;5081521;28;20090;-78
2022/01/24 04:23:43;;;;;;;55.58;33.80;;;;;;;;;;5092660;28;20043;-78
2022/01/24 04:26:09;;;;;;;59.13;35.70;;;;;;;;;;5093374;28;20457;-78
2022/01/24 04:28:35;;;;;;;58.95;34.78;;;;;;;;;;5093296;28;20032;-78
2022/01/24 04:31:01;;;;;;;58.78;36.08;;;;;;;;;;5092197;28;20706;-78
2022/01/24 04:33:27;;;;;;;61.00;35.65;;;;;;;;;;5072708;28;20036;-78
2022/01/24 04:35:53;;;;;;;56.63;34.22;;;;;;;;;;5092837;28;20040;-78
2022/01/24 04:38:19;;;;;;;60.42;35.35;;;;;;;;;;5092292;28;20602;-78
2022/01/24 04:40:46;;;;;;;59.53;35.88;;;;;;;;;;5092468;28;20097;-78
2022/01/24 04:43:32;;;;;;;60.90;39.05;;;;;;;;;;5092890;28;20039;-78
2022/01/24 04:51:16;;;;;;;66.65;41.00;;;;;;;;;;5074813;28;20051;-79
2022/01/24 04:53:53;;;;;;;58.00;36.55;;;;;;;;;;5072407;28;20083;-78
2022/01/24 04:56:19;;;;;;;54.97;35.10;;;;;;;;;;5089820;28;20028;-78
2022/01/24 04:58:45;;;;;;;59.58;36.75;;;;;;;;;;5092374;28;20036;-78
2022/01/24 05:01:12;;;;;;;53.65;30.85;;;;;;;;;;5090313;28;20778;-78
2022/01/24 05:03:38;;;;;;;51.80;28.58;;;;;;;;;;5092380;28;20060;-78
2022/01/24 05:06:04;;;;;;;53.65;30.92;;;;;;;;;;5092077;28;20063;-79
2022/01/24 05:08:30;;;;;;;52.13;32.03;;;;;;;;;;5092169;28;20050;-78
2022/01/24 05:11:04;;;;;;;52.08;31.60;;;;;;;;;;5091898;28;20363;-78
2022/01/24 05:24:28;;;;;;;58.67;34.00;;;;;;;;;;5081782;28;20051;-78
2022/01/24 05:26:54;;;;;;;56.75;34.45;;;;;;;;;;5090357;28;20027;-78
2022/01/24 05:29:20;;;;;;;59.78;35.60;;;;;;;;;;5090995;28;20482;-78
2022/01/24 05:31:46;;;;;;;55.47;31.75;;;;;;;;;;5092079;28;20036;-78
2022/01/24 05:34:12;;;;;;;55.88;32.15;;;;;;;;;;5087161;28;20037;-78
2022/01/24 05:36:38;;;;;;;56.40;30.73;;;;;;;;;;5082139;28;20039;-78
2022/01/24 05:39:05;;;;;;;55.60;34.20;;;;;;;;;;5091298;28;20509;-78
2022/01/24 05:41:32;;;;;;;58.25;34.28;;;;;;;;;;5087778;28;20017;-78
2022/01/24 05:43:58;;;;;;;54.13;30.17;;;;;;;;;;5071376;28;20044;-78
2022/01/24 05:46:24;;;;;;;58.50;33.05;;;;;;;;;;5090547;28;20027;-78
2022/01/24 05:48:51;;;;;;;57.25;33.50;;;;;;;;;;5091511;28;20501;-78
2022/01/24 05:51:20;;;;;;;59.78;35.88;;;;;;;;;;5090853;28;20028;-78
2022/01/24 05:53:46;;;;;;;66.03;39.92;;;;;;;;;;5090394;28;20101;-78
2022/01/24 05:56:12;;;;;;;62.60;36.63;;;;;;;;;;5078784;28;20055;-78
2022/01/24 05:58:38;;;;;;;62.03;35.63;;;;;;;;;;5071202;28;20036;-78
2022/01/24 06:01:04;;;;;;;58.65;37.08;;;;;;;;;;5078091;28;20845;-78
2022/01/24 06:03:30;;;;;;;54.33;33.17;;;;;;;;;;5090807;28;20028;-78
2022/01/24 06:05:56;;;;;;;53.05;32.08;;;;;;;;;;5083247;28;20031;-78
2022/01/24 06:08:22;;;;;;;60.03;35.58;;;;;;;;;;5076987;28;20035;-78
2022/01/24 06:10:48;;;;;;;61.55;37.35;;;;;;;;;;5081344;28;20077;-79
2022/01/24 06:13:15;;;;;;;61.88;37.30;;;;;;;;;;5088912;28;20035;-78
2022/01/24 06:15:42;;;;;;;58.78;32.00;;;;;;;;;;5088040;28;20042;-79
2022/01/24 06:18:08;;;;;;;57.72;31.73;;;;;;;;;;5086936;28;20058;-79
2022/01/24 06:20:34;;;;;;;50.83;29.25;;;;;;;;;;5084741;28;20024;-78
2022/01/24 06:23:00;;;;;;;49.25;29.25;;;;;;;;;;5088844;28;20058;-78
2022/01/24 06:25:28;;;;;;;48.40;27.40;;;;;;;;;;5087774;28;20024;-78
2022/01/24 06:27:54;;;;;;;50.30;27.45;;;;;;;;;;5087397;28;20757;-78
2022/01/24 06:30:20;;;;;;;52.08;30.52;;;;;;;;;;5083996;28;20055;-78
2022/01/24 06:32:46;;;;;;;56.78;30.80;;;;;;;;;;5087996;28;20040;-78
2022/01/24 06:35:13;;;;;;;54.45;31.20;;;;;;;;;;5086815;28;20062;-78
2022/01/24 06:37:39;;;;;;;52.92;29.88;;;;;;;;;;5088157;28;20040;-79
2022/01/24 06:40:06;;;;;;;54.40;29.65;;;;;;;;;;5088129;28;20048;-80
2022/01/24 06:42:32;;;;;;;51.33;26.30;;;;;;;;;;5089033;28;20491;-80
2022/01/24 06:44:58;;;;;;;48.25;26.88;;;;;;;;;;5087415;28;20028;-80
2022/01/24 06:47:24;;;;;;;51.72;31.00;;;;;;;;;;5084802;28;20039;-79
2022/01/24 06:49:53;;;;;;;56.45;31.63;;;;;;;;;;5089894;28;20055;-81
2022/01/24 06:52:20;;;;;;;53.92;32.08;;;;;;;;;;5088933;28;20107;-80
2022/01/24 06:54:46;;;;;;;54.60;30.60;;;;;;;;;;5087299;28;20490;-80
2022/01/24 06:57:16;;;;;;;59.42;34.15;;;;;;;;;;5087528;28;20039;-80
2022/01/24 06:59:43;;;;;;;68.55;38.15;;;;;;;;;;5089395;28;20056;-80
2022/01/24 07:02:10;;;;;;;58.90;33.90;;;;;;;;;;5088892;28;20035;-80
2022/01/24 07:04:39;;;;;;;58.53;34.70;;;;;;;;;;5088847;28;20023;-80
2022/01/24 07:07:05;;;;;;;60.25;35.83;;;;;;;;;;5083955;28;20051;-79
2022/01/24 07:09:31;;;;;;;65.35;36.10;;;;;;;;;;5071422;28;20110;-79
2022/01/24 07:12:00;;;;;;;63.33;36.10;;;;;;;;;;5088779;28;20032;-79
2022/01/24 07:14:26;;;;;;;56.47;32.67;;;;;;;;;;5084622;28;20374;-79
2022/01/24 07:19:21;;;;;;;48.40;27.55;;;;;;;;;;5083088;28;20028;-80
2022/01/24 07:21:47;;;;;;;53.63;30.05;;;;;;;;;;5088992;28;20028;-80
2022/01/24 07:24:13;;;;;;;56.13;30.58;;;;;;;;;;5084932;28;20195;-80
2022/01/24 07:26:39;;;;;;;52.70;31.17;;;;;;;;;;5078630;28;20040;-79
2022/01/24 07:29:05;;;;;;;51.00;29.77;;;;;;;;;;5069004;28;20126;-80
2022/01/24 07:31:31;;;;;;;55.72;31.42;;;;;;;;;;5072042;28;20041;-80
2022/01/24 07:33:58;;;;;;;55.95;32.38;;;;;;;;;;5083995;28;20390;-80
2022/01/24 07:36:25;;;;;;;54.63;33.13;;;;;;;;;;5090727;28;20048;-80
2022/01/24 07:38:51;;;;;;;56.63;30.73;;;;;;;;;;5035821;28;1230750;-80
2022/01/24 07:41:23;;;;;;;53.05;30.67;;;;;;;;;;5094137;28;20024;-80
2022/01/24 07:43:49;;;;;;;57.95;33.50;;;;;;;;;;5094304;28;20070;-80
2022/01/24 07:46:15;;;;;;;53.47;33.45;;;;;;;;;;5093597;28;20039;-80
2022/01/24 07:48:41;;;;;;;57.47;34.35;;;;;;;;;;5093678;28;20032;-80
2022/01/24 07:51:07;;;;;;;64.45;37.47;;;;;;;;;;5093399;28;20055;-80
2022/01/24 07:53:33;;;;;;;59.42;38.40;;;;;;;;;;5076077;28;20048;-80
2022/01/24 07:55:59;;;;;;;56.65;34.70;;;;;;;;;;5089050;28;20027;-80
2022/01/24 07:58:26;;;;;;;53.42;32.33;;;;;;;;;;5088005;28;20047;-80
2022/01/24 08:00:52;;;;;;;59.70;36.42;;;;;;;;;;5074531;28;20127;-80
2022/01/24 08:03:18;;;;;;;58.35;33.50;;;;;;;;;;5074438;28;20282;-80
2022/01/24 08:05:44;;;;;;;55.17;33.38;;;;;;;;;;5092262;28;20032;-80
2022/01/24 08:08:10;;;;;;;60.35;36.08;;;;;;;;;;5091227;28;20043;-79
2022/01/24 08:10:37;;;;;;;54.55;33.80;;;;;;;;;;5093427;28;20051;-79
2022/01/24 08:13:03;;;;;;;52.25;31.15;;;;;;;;;;5088284;28;20118;-80
2022/01/24 08:15:29;;;;;;;53.05;31.33;;;;;;;;;;5093198;28;20502;-79
2022/01/24 08:17:55;;;;;;;55.33;33.53;;;;;;;;;;5088094;28;20031;-80
2022/01/24 08:20:22;;;;;;;50.67;32.15;;;;;;;;;;5093654;28;20787;-80
2022/01/24 08:22:48;;;;;;;63.05;38.00;;;;;;;;;;5080124;28;20036;-80
2022/01/24 08:25:14;;;;;;;50.28;30.15;;;;;;;;;;5092520;28;20035;-81
2022/01/24 08:27:41;;;;;;;61.65;34.55;;;;;;;;;;5092104;28;20040;-81
2022/01/24 08:30:08;;;;;;;66.70;35.08;;;;;;;;;;5092891;28;20576;-81
2022/01/24 08:32:34;;;;;;;56.42;33.80;;;;;;;;;;5087196;28;20048;-80
2022/01/24 08:35:00;;;;;;;60.83;35.40;;;;;;;;;;5087993;28;20035;-79
2022/01/24 08:37:27;;;;;;;67.05;39.17;;;;;;;;;;5089664;28;20043;-79
2022/01/24 08:39:54;;;;;;;56.63;35.95;;;;;;;;;;5067828;28;20049;-79
2022/01/24 08:42:30;;;;;;;58.95;36.53;;;;;;;;;;5071380;28;20039;-79
2022/01/24 08:47:27;;;;;;;57.28;34.50;;;;;;;;;;5071184;28;20043;-79
2022/01/24 08:49:53;;;;;;;55.63;33.92;;;;;;;;;;5072045;28;20043;-78
2022/01/24 08:52:19;;;;;;;54.38;32.05;;;;;;;;;;5069384;28;20043;-78
2022/01/24 08:54:45;;;;;;;57.95;32.75;;;;;;;;;;5069345;28;20033;-78
2022/01/24 08:57:13;;;;;;;55.40;33.08;;;;;;;;;;5066046;28;20032;-77
2022/01/24 08:59:39;;;;;;;59.92;35.10;;;;;;;;;;5066181;28;20128;-78
2022/01/24 09:02:05;;;;;;;58.85;36.47;;;;;;;;;;5084630;28;20064;-78
2022/01/24 09:04:31;;;;;;;73.55;45.78;;;;;;;;;;5083294;28;20128;-78
2022/01/24 09:07:00;;;;;;;67.38;38.20;;;;;;;;;;5072158;28;20818;-78
2022/01/24 09:09:26;;;;;;;99.50;51.25;;;;;;;;;;5069312;28;20028;-78
2022/01/24 09:11:52;;;;;;;56.17;31.33;;;;;;;;;;5060750;28;20063;-77
2022/01/24 09:14:18;;;;;;;58.00;33.33;;;;;;;;;;5064642;28;20060;-78
2022/01/24 09:16:46;;;;;;;57.33;33.50;;;;;;;;;;5071333;28;20147;-78
2022/01/24 09:19:12;;;;;;;60.70;36.90;;;;;;;;;;5052677;28;20036;-77
2022/01/24 09:21:38;;;;;;;57.55;33.72;;;;;;;;;;5071537;28;20127;-78
2022/01/24 09:24:05;;;;;;;50.83;31.83;;;;;;;;;;5065012;28;20032;-74
2022/01/24 09:26:31;;;;;;;47.88;29.25;;;;;;;;;;5082994;28;20550;-73
2022/01/24 09:28:57;;;;;;;50.60;31.48;;;;;;;;;;5080760;28;20371;-72
2022/01/24 09:31:23;;;;;;;53.83;34.13;;;;;;;;;;5076549;28;20036;-72
2022/01/24 09:33:50;;;;;;;58.55;34.58;;;;;;;;;;5060595;28;20490;-73
2022/01/24 09:36:17;;;;;;;52.20;30.77;;;;;;;;;;5073994;28;20043;-72
2022/01/24 09:38:43;;;;;;;50.00;29.38;;;;;;;;;;5075905;28;20087;-73
2022/01/24 09:41:10;;;;;;;48.88;28.35;;;;;;;;;;5090744;28;20052;-72
2022/01/24 09:43:36;;;;;;;52.38;30.83;;;;;;;;;;5090070;28;20124;-73
2022/01/24 09:46:03;;;;;;;49.90;29.00;;;;;;;;;;5090174;28;20039;-72
2022/01/24 09:48:29;;;;;;;51.88;30.08;;;;;;;;;;5085360;28;20124;-72
2022/01/24 09:50:55;;;;;;;49.42;31.05;;;;;;;;;;5087086;28;20504;-72
2022/01/24 09:53:24;;;;;;;54.08;33.22;;;;;;;;;;5093723;28;20340;-72
2022/01/24 09:55:51;;;;;;;54.50;32.72;;;;;;;;;;5070553;28;20474;-72
2022/01/24 09:58:17;;;;;;;55.05;33.88;;;;;;;;;;5089204;28;20064;-72
2022/01/24 10:00:43;;;;;;;56.63;35.63;;;;;;;;;;5086059;28;20112;-73
2022/01/24 10:03:12;;;;;;;49.33;30.42;;;;;;;;;;5087935;28;20060;-72
2022/01/24 10:05:38;;;;;;;52.10;30.70;;;;;;;;;;5088839;28;20038;-72
2022/01/24 10:08:06;;;;;;;61.13;33.00;;;;;;;;;;5084491;28;20479;-72
2022/01/24 10:10:40;;;;;;;49.80;30.35;;;;;;;;;;5085079;28;20039;-72
2022/01/24 10:19:02;;;;;;;53.53;29.20;;;;;;;;;;5088678;28;20047;-72
2022/01/24 10:21:29;;;;;;;54.95;33.78;;;;;;;;;;5086634;28;20479;-72
2022/01/24 10:23:56;;;;;;;57.78;31.65;;;;;;;;;;5086843;28;20036;-72
2022/01/24 10:26:24;;;;;;;64.93;33.45;;;;;;;;;;5077597;28;20036;-72
2022/01/24 10:28:50;;;;;;;55.42;30.80;;;;;;;;;;5088034;28;20043;-72
2022/01/24 10:31:21;;;;;;;49.30;31.33;;;;;;;;;;5091999;28;20082;-72
2022/01/24 10:33:50;;;;;;;46.05;28.88;;;;;;;;;;5083992;28;20111;-72
2022/01/24 10:36:35;;;;;;;49.13;31.45;;;;;;;;;;5082362;28;20028;-72
2022/01/24 10:39:09;;;;;;;46.15;28.05;;;;;;;;;;5082692;28;20055;-73
2022/01/24 10:44:27;;;;;;;48.72;27.00;;;;;;;;;;5085275;28;20050;-72
2022/01/24 10:46:53;;;;;;;50.88;28.75;;;;;;;;;;5085244;28;20040;-72
2022/01/24 10:49:30;;;;;;;45.65;26.02;;;;;;;;;;5085714;28;20063;-73
2022/01/24 10:52:09;;;;;;;45.45;28.05;;;;;;;;;;5061064;28;20451;-72
2022/01/24 10:54:35;;;;;;;48.85;30.20;;;;;;;;;;5079653;28;20629;-73
2022/01/24 10:57:01;;;;;;;54.17;28.33;;;;;;;;;;5085027;28;20051;-72
2022/01/24 10:59:27;;;;;;;48.22;25.77;;;;;;;;;;5086189;28;20103;-73
2022/01/24 11:01:54;;;;;;;54.15;31.73;;;;;;;;;;5088468;28;20670;-72
2022/01/24 11:04:23;;;;;;;51.88;28.67;;;;;;;;;;5084934;28;20031;-73
2022/01/24 11:06:50;;;;;;;46.65;27.88;;;;;;;;;;5087881;28;20039;-73
2022/01/24 11:09:25;;;;;;;58.65;30.67;;;;;;;;;;5084704;28;20032;-73
2022/01/24 11:11:57;;;;;;;52.20;30.30;;;;;;;;;;5085145;28;20035;-73
2022/01/24 11:14:24;;;;;;;46.40;27.52;;;;;;;;;;5083936;28;20028;-73
2022/01/24 11:16:51;;;;;;;50.08;31.33;;;;;;;;;;5087836;28;20040;-72
2022/01/24 11:19:28;;;;;;;52.75;29.98;;;;;;;;;;5083731;28;20805;-73
2022/01/24 11:21:56;;;;;;;55.92;33.45;;;;;;;;;;5087132;28;20032;-72
2022/01/24 11:24:29;;;;;;;64.68;35.28;;;;;;;;;;5088406;28;20024;-72
2022/01/24 11:26:55;;;;;;;71.35;41.08;;;;;;;;;;5084059;28;20425;-72
2022/01/24 11:29:22;;;;;;;57.22;34.38;;;;;;;;;;5096583;28;20031;-72
2022/01/24 11:32:03;;;;;;;48.67;30.65;;;;;;;;;;5091683;28;20036;-72
2022/01/24 11:34:33;;;;;;;53.00;34.35;;;;;;;;;;5085660;28;20031;-72
2022/01/24 11:36:59;;;;;;;41.83;27.15;;;;;;;;;;5080176;28;20040;-72
2022/01/24 11:39:26;;;;;;;44.78;29.77;;;;;;;;;;5094829;28;20051;-72
2022/01/24 11:41:52;;;;;;;46.38;29.33;;;;;;;;;;5086266;28;20039;-72
2022/01/24 11:44:20;;;;;;;43.92;28.63;;;;;;;;;;5084692;28;20020;-72
2022/01/24 11:46:55;;;;;;;48.67;30.00;;;;;;;;;;5084624;28;20509;-72
2022/01/24 11:49:21;;;;;;;44.33;28.63;;;;;;;;;;5092290;28;20070;-72
2022/01/24 11:51:51;;;;;;;45.25;27.42;;;;;;;;;;5088702;28;20051;-73
2022/01/24 11:54:43;;;;;;;47.95;29.50;;;;;;;;;;5090460;28;20048;-72
2022/01/24 11:57:15;;;;;;;46.40;30.00;;;;;;;;;;5085004;28;20042;-72
2022/01/24 11:59:41;;;;;;;48.40;29.85;;;;;;;;;;5080154;28;20058;-72
2022/01/24 12:02:15;;;;;;;46.88;29.20;;;;;;;;;;5099629;28;20056;-72
2022/01/24 12:04:52;;;;;;;41.72;28.58;;;;;;;;;;5087823;28;20024;-72
2022/01/24 12:07:20;;;;;;;47.25;29.40;;;;;;;;;;5082619;28;20047;-72
2022/01/24 12:09:46;;;;;;;44.22;28.98;;;;;;;;;;5086892;28;20028;-72
2022/01/24 12:12:34;;;;;;;40.47;27.52;;;;;;;;;;5091533;28;20087;-72
2022/01/24 12:15:01;;;;;;;43.47;27.80;;;;;;;;;;5082967;28;20032;-72
2022/01/24 12:17:47;;;;;;;45.13;29.35;;;;;;;;;;5088161;28;20028;-72
2022/01/24 12:20:31;;;;;;;43.80;29.75;;;;;;;;;;5085072;28;20032;-72
2022/01/24 12:23:21;;;;;;;41.05;26.25;;;;;;;;;;5085513;28;20390;-72
2022/01/24 12:26:02;;;;;;;47.50;29.10;;;;;;;;;;5090515;28;20028;-72
2022/01/24 12:28:43;;;;;;;43.78;28.40;;;;;;;;;;5089669;28;20036;-72
2022/01/24 12:31:10;;;;;;;44.35;28.52;;;;;;;;;;5086167;28;20455;-72
2022/01/24 12:33:56;;;;;;;40.40;26.67;;;;;;;;;;5091265;28;20410;-72
2022/01/24 12:36:34;;;;;;;42.90;27.08;;;;;;;;;;5090423;28;20697;-72
2022/01/24 12:39:08;;;;;;;45.72;28.08;;;;;;;;;;5089296;28;20047;-72
2022/01/24 12:41:38;;;;;;;39.40;25.95;;;;;;;;;;5082780;28;20028;-72
2022/01/24 12:46:31;;;;;;;44.38;26.73;;;;;;;;;;5080136;28;20035;-72
2022/01/24 12:48:58;;;;;;;39.55;25.58;;;;;;;;;;5081500;28;20515;-72
2022/01/24 12:51:25;;;;;;;47.90;29.65;;;;;;;;;;5086525;28;20044;-72
2022/01/24 12:53:51;;;;;;;46.35;29.85;;;;;;;;;;5087011;28;20096;-72
2022/01/24 12:56:18;;;;;;;42.05;24.95;;;;;;;;;;5088408;28;20024;-72
2022/01/24 12:58:47;;;;;;;40.03;24.38;;;;;;;;;;5086929;28;20048;-72
2022/01/24 13:01:17;;;;;;;42.13;27.85;;;;;;;;;;5091074;28;20024;-72
2022/01/24 13:03:47;;;;;;;41.30;25.13;;;;;;;;;;5087551;28;20036;-72
2022/01/24 13:06:14;;;;;;;38.60;25.88;;;;;;;;;;5089169;28;20393;-72
2022/01/24 13:08:50;;;;;;;37.72;24.92;;;;;;;;;;5087588;28;20067;-72
2022/01/24 13:11:17;;;;;;;37.50;24.52;;;;;;;;;;5091657;28;20036;-72
2022/01/24 13:14:07;;;;;;;35.33;24.30;;;;;;;;;;5091380;28;20036;-72
2022/01/24 13:22:20;;;;;;;40.25;23.50;;;;;;;;;;5091180;28;20643;-72
2022/01/24 13:25:04;;;;;;;34.42;21.85;;;;;;;;;;5093650;28;20028;-72
2022/01/24 13:27:34;;;;;;;36.35;22.10;;;;;;;;;;5082559;28;20103;-72
2022/01/24 13:30:00;;;;;;;39.65;24.50;;;;;;;;;;5096065;28;20039;-72
2022/01/24 13:32:42;;;;;;;36.10;24.13;;;;;;;;;;5082858;28;20035;-72
2022/01/24 13:35:23;;;;;;;39.83;22.75;;;;;;;;;;5082073;28;20118;-72
2022/01/24 13:37:49;;;;;;;34.70;22.13;;;;;;;;;;5084634;28;20372;-72
2022/01/24 13:40:15;;;;;;;34.38;21.02;;;;;;;;;;5090921;28;20054;-72
2022/01/24 13:42:41;;;;;;;34.45;20.77;;;;;;;;;;5090504;28;20039;-72
2022/01/24 13:45:08;;;;;;;37.30;21.45;;;;;;;;;;5090043;28;20033;-72
2022/01/24 13:47:34;;;;;;;34.38;20.60;;;;;;;;;;5096149;28;20111;-72
2022/01/24 13:50:00;;;;;;;38.70;22.70;;;;;;;;;;5089528;28;20032;-72
2022/01/24 13:52:28;;;;;;;41.95;24.52;;;;;;;;;;5094486;28;20085;-71
2022/01/24 13:54:54;;;;;;;31.83;19.50;;;;;;;;;;5091037;28;20036;-72
2022/01/24 13:57:20;;;;;;;27.38;18.55;;;;;;;;;;5088850;28;20028;-72
2022/01/24 13:59:46;;;;;;;26.20;17.05;;;;;;;;;;5091421;28;20036;-72
2022/01/24 14:02:15;;;;;;;27.63;18.35;;;;;;;;;;5088819;28;20024;-72
2022/01/24 14:04:52;;;;;;;27.02;16.40;;;;;;;;;;5088694;28;20031;-72
2022/01/24 14:07:24;;;;;;;25.45;16.75;;;;;;;;;;5089533;28;20035;-71
2022/01/24 14:10:00;;;;;;;30.17;19.02;;;;;;;;;;5084297;28;20063;-72
2022/01/24 14:12:40;;;;;;;28.75;18.20;;;;;;;;;;5088146;28;20123;-72
2022/01/24 14:15:12;;;;;;;27.73;18.63;;;;;;;;;;5089686;28;20135;-72
2022/01/24 14:20:08;;;;;;;39.22;24.13;;;;;;;;;;5087338;28;20078;-72
2022/01/24 14:22:47;;;;;;;30.95;19.08;;;;;;;;;;5080114;28;20025;-71
2022/01/24 14:25:22;;;;;;;33.03;20.38;;;;;;;;;;5087013;28;20691;-72
2022/01/24 14:27:49;;;;;;;31.48;19.15;;;;;;;;;;5087376;28;20806;-72
2022/01/24 14:30:20;;;;;;;33.13;19.20;;;;;;;;;;5086849;28;20565;-71
2022/01/24 14:33:01;;;;;;;29.58;18.20;;;;;;;;;;5090687;28;20043;-71
2022/01/24 14:35:30;;;;;;;27.15;17.45;;;;;;;;;;5088231;28;20035;-72
2022/01/24 14:37:56;;;;;;;32.97;20.00;;;;;;;;;;5086753;28;20154;-71
2022/01/24 14:40:46;;;;;;;37.67;21.05;;;;;;;;;;5088331;28;20895;-72
2022/01/24 14:46:06;;;;;;;30.13;18.92;;;;;;;;;;5086722;28;20092;-72
2022/01/24 14:48:33;;;;;;;35.55;21.15;;;;;;;;;;5084959;28;20032;-72
2022/01/24 14:50:59;;;;;;;35.58;22.70;;;;;;;;;;5088337;28;20024;-72
2022/01/24 14:53:29;;;;;;;32.42;20.33;;;;;;;;;;5088570;28;20089;-73
2022/01/24 14:55:55;;;;;;;36.72;20.13;;;;;;;;;;5091442;28;20031;-72
2022/01/24 14:58:22;;;;;;;38.80;21.55;;;;;;;;;;5095096;28;20470;-72
2022/01/24 15:00:48;;;;;;;32.67;20.67;;;;;;;;;;5091814;28;20024;-72
2022/01/24 15:03:14;;;;;;;39.17;21.77;;;;;;;;;;5096316;28;20023;-72
2022/01/24 15:05:40;;;;;;;33.65;17.92;;;;;;;;;;5087816;28;20020;-72
2022/01/24 15:08:06;;;;;;;32.30;19.10;;;;;;;;;;5088041;28;20032;-72
2022/01/24 15:10:34;;;;;;;27.92;16.13;;;;;;;;;;5085911;28;20054;-72
2022/01/24 15:13:04;;;;;;;35.78;18.50;;;;;;;;;;5088443;28;20790;-71
2022/01/24 15:15:33;;;;;;;37.08;20.00;;;;;;;;;;5081017;28;20025;-72
2022/01/24 15:24:12;;;;;;;40.88;25.38;;;;;;;;;;5003450;28;20037;-72
2022/01/24 15:26:38;;;;;;;51.55;30.50;;;;;;;;;;5082469;28;20032;-72
2022/01/24 15:29:04;;;;;;;52.05;30.13;;;;;;;;;;5088888;28;20036;-72
2022/01/24 15:31:30;;;;;;;54.22;34.55;;;;;;;;;;5087937;28;20600;-72
2022/01/24 15:33:56;;;;;;;56.05;32.10;;;;;;;;;;5088485;28;20036;-72
2022/01/24 15:36:22;;;;;;;53.47;35.47;;;;;;;;;;5089941;28;20028;-72
2022/01/24 15:38:48;;;;;;;69.03;41.13;;;;;;;;;;5087954;28;20095;-72
2022/01/24 15:41:15;;;;;;;62.65;41.20;;;;;;;;;;5087956;28;20033;-72
2022/01/24 15:44:01;;;;;;;58.33;36.38;;;;;;;;;;5080772;28;20070;-72
2022/01/24 15:48:59;;;;;;;56.75;34.65;;;;;;;;;;5085179;28;20532;-72
2022/01/24 15:51:25;;;;;;;50.55;31.80;;;;;;;;;;5086737;28;20111;-72
2022/01/24 15:53:51;;;;;;;42.85;25.85;;;;;;;;;;5089634;28;20047;-72
2022/01/24 15:58:46;;;;;;;41.08;23.30;;;;;;;;;;5089762;28;20052;-72
2022/01/24 16:01:12;;;;;;;40.53;21.70;;;;;;;;;;5090111;28;20032;-72
2022/01/24 16:03:38;;;;;;;36.38;21.17;;;;;;;;;;5086590;28;20840;-72
2022/01/24 16:06:04;;;;;;;33.97;20.15;;;;;;;;;;5088575;28;20031;-72
2022/01/24 16:08:30;;;;;;;36.00;19.77;;;;;;;;;;5088801;28;20078;-72
2022/01/24 16:10:56;;;;;;;36.65;22.20;;;;;;;;;;5087218;28;20032;-72
2022/01/24 16:13:23;;;;;;;43.33;24.27;;;;;;;;;;5091047;28;20171;-72
2022/01/24 16:15:49;;;;;;;39.45;22.10;;;;;;;;;;5092464;28;20024;-72
2022/01/24 16:18:17;;;;;;;46.78;27.75;;;;;;;;;;5091520;28;20039;-71
2022/01/24 16:21:03;;;;;;;41.90;27.83;;;;;;;;;;5085535;28;20476;-72
2022/01/24 16:23:47;;;;;;;48.00;27.20;;;;;;;;;;5086032;28;20043;-72
2022/01/24 16:26:13;;;;;;;51.33;31.73;;;;;;;;;;5087979;28;20020;-72
2022/01/24 16:28:39;;;;;;;59.90;35.83;;;;;;;;;;5090532;28;20083;-72
2022/01/24 16:31:06;;;;;;;60.17;34.47;;;;;;;;;;5092541;28;20604;-72
2022/01/24 16:33:33;;;;;;;58.85;34.38;;;;;;;;;;5086660;28;20107;-72
2022/01/24 16:36:10;;;;;;;57.03;36.42;;;;;;;;;;5091946;28;20055;-72
2022/01/24 16:38:36;;;;;;;50.92;32.22;;;;;;;;;;5084743;28;20390;-71
2022/01/24 16:48:39;;;;;;;45.72;30.60;;;;;;;;;;5084899;28;20039;-72
2022/01/24 16:51:08;;;;;;;47.53;29.77;;;;;;;;;;5089428;28;20389;-72
2022/01/24 16:53:34;;;;;;;44.72;28.85;;;;;;;;;;5090306;28;20032;-72